Terminal Aerodrome Forecast
Issued by NWS

Home | Current Version | Previous Version | Text Only | Print | Product List | Glossary Off
Versions: 1 2 3 4 5 6 7 8 9 10 11 12 13 14 15 16 17 18 19 20 21 22 23 24 25 26 27 28 29 30 31 32 33 34 35 36 37

000
FTUS43 KGRB 220500
TAFRHI
TAF
KRHI 220536Z 2206/2306 21012G19KT P6SM BKN015 OVC100 WS015/21045KT
     FM221200 21009KT 6SM -FZDZ BR OVC008
     FM221500 21009KT 6SM -DZ BR OVC010
     FM221800 20007KT 6SM BR BKN015
     FM230000 20050KT 5SM -DZ BR OVC010=

USA.gov is the U.S. government's official web portal to all federal, state and local government web resources and services.